Time;durP1;ratioP1;P1;durP2;ratioP2;P2;SDS_P1;SDS_P2;PMS_P1;PMS_P2;Temp;Humidity;BMP_temperature;BMP_pressure;BME280_temperature;BME280_humidity;BME280_pressure;Samples;Min_cycle;Max_cycle;Signal;HPM_P1;HPM_P2
2022/09/27 00:01:38;;;;;;;5.95;2.40;;;;;;;13.88;76.86;97683.19;5093663;28;20103;-48
2022/09/27 00:04:03;;;;;;;1.60;0.90;;;;;;;13.93;74.85;97682.47;5092240;28;20037;-48
2022/09/27 00:06:33;;;;;;;2.80;1.38;;;;;;;13.95;75.19;97675.91;5092202;28;20081;-47
2022/09/27 00:08:59;;;;;;;18.27;15.60;;;;;;;13.98;74.48;97672.78;5093544;28;20024;-48
2022/09/27 00:11:44;;;;;;;11.50;10.38;;;;;;;14.03;73.90;97669.41;5092106;28;20031;-48
2022/09/27 00:14:12;;;;;;;14.25;12.80;;;;;;;14.05;73.71;97661.25;5093398;28;20520;-48
2022/09/27 00:16:40;;;;;;;18.13;16.38;;;;;;;14.10;73.08;97658.66;5092794;28;20142;-48
2022/09/27 00:19:10;;;;;;;9.23;6.45;;;;;;;14.09;73.52;97665.78;5093222;28;20485;-47
2022/09/27 00:21:36;;;;;;;8.70;4.90;;;;;;;14.11;72.99;97676.09;5093186;28;20095;-48
2022/09/27 00:24:02;;;;;;;7.35;4.22;;;;;;;14.15;72.94;97662.13;5092250;28;20099;-48
2022/09/27 00:26:28;;;;;;;5.18;3.22;;;;;;;14.18;73.30;97682.75;5091775;28;20024;-48
2022/09/27 00:28:54;;;;;;;3.38;2.20;;;;;;;14.15;73.96;97669.25;5091937;28;20097;-48
2022/09/27 00:31:28;;;;;;;4.90;1.58;;;;;;;14.07;73.54;97667.88;5092015;28;20073;-48
2022/09/27 00:33:55;;;;;;;2.90;1.55;;;;;;;14.05;72.09;97667.31;5092898;28;20040;-48
2022/09/27 00:36:22;;;;;;;4.55;1.23;;;;;;;14.09;72.75;97673.69;5091669;28;20024;-48
2022/09/27 00:38:48;;;;;;;2.65;1.05;;;;;;;14.17;72.23;97662.69;5093219;28;20034;-48
2022/09/27 00:41:17;;;;;;;2.65;1.33;;;;;;;14.22;72.63;97676.97;5092781;28;20028;-46
2022/09/27 00:43:45;;;;;;;2.67;0.90;;;;;;;14.36;73.32;97699.28;5091530;28;20082;-46
2022/09/27 00:46:14;;;;;;;9.20;1.90;;;;;;;14.62;75.09;97732.03;5092819;28;20051;-46
2022/09/27 00:48:40;;;;;;;5.65;1.55;;;;;;;15.14;76.46;97754.41;5091401;28;20505;-47
2022/09/27 00:51:08;;;;;;;10.70;5.60;;;;;;;15.24;77.97;97743.91;5091482;28;20023;-45
2022/09/27 00:53:50;;;;;;;7.15;4.28;;;;;;;14.86;78.19;97761.56;5092725;28;20520;-46
2022/09/27 00:56:22;;;;;;;6.88;3.92;;;;;;;14.37;80.14;97778.22;5092561;28;20036;-46
2022/09/27 00:58:59;;;;;;;7.82;3.10;;;;;;;14.03;82.50;97780.19;5091336;28;20462;-46
2022/09/27 01:01:25;;;;;;;9.07;2.85;;;;;;;13.82;84.19;97778.34;5092606;28;20028;-46
2022/09/27 01:03:56;;;;;;;12.77;3.17;;;;;;;13.78;85.54;97776.19;5092579;28;20063;-46
2022/09/27 01:06:22;;;;;;;9.77;3.20;;;;;;;13.74;86.73;97777.72;5091465;28;20035;-47
2022/09/27 01:08:48;;;;;;;10.55;3.63;;;;;;;13.73;87.27;97773.47;5091141;28;20024;-46
2022/09/27 01:11:16;;;;;;;12.18;3.15;;;;;;;13.86;88.53;97763.63;5091041;28;20032;-47
2022/09/27 01:13:59;;;;;;;9.88;3.45;;;;;;;13.85;87.93;97764.66;5092099;28;20079;-46
2022/09/27 01:16:51;;;;;;;12.10;3.03;;;;;;;13.87;88.49;97754.69;5092311;28;20043;-46
2022/09/27 01:19:48;;;;;;;4.97;2.50;;;;;;;13.65;88.21;97749.38;5092316;28;20020;-47
2022/09/27 01:22:21;;;;;;;7.25;2.78;;;;;;;13.47;88.54;97756.50;5092280;28;20032;-47
2022/09/27 01:24:47;;;;;;;6.05;3.25;;;;;;;13.35;88.97;97758.44;5092211;28;20032;-46
2022/09/27 01:27:35;;;;;;;6.22;3.00;;;;;;;13.27;89.32;97756.97;5091309;28;20024;-46
2022/09/27 01:30:20;;;;;;;5.10;2.63;;;;;;;13.23;89.60;97755.06;5092148;28;20035;-46
2022/09/27 01:33:11;;;;;;;4.60;2.33;;;;;;;13.22;89.97;97751.63;5091981;28;20032;-46
2022/09/27 01:36:14;;;;;;;5.43;2.33;;;;;;;13.24;89.85;97752.19;5092570;28;20432;-44
2022/09/27 01:38:51;;;;;;;5.22;2.00;;;;;;;13.30;90.41;97763.63;5090709;28;20020;-44
2022/09/27 01:41:27;;;;;;;6.93;2.53;;;;;;;13.56;91.39;97754.25;5092214;28;20028;-45
2022/09/27 01:43:53;;;;;;;4.38;1.70;;;;;;;13.82;90.91;97759.88;5091977;28;20081;-45
2022/09/27 01:46:27;;;;;;;5.80;2.15;;;;;;;13.82;90.23;97752.75;5091876;28;20498;-45
2022/09/27 01:48:55;;;;;;;10.55;5.97;;;;;;;13.96;90.36;97742.63;5091915;28;20032;-45
2022/09/27 01:51:56;;;;;;;10.50;2.35;;;;;;;14.42;90.07;97751.09;5090424;28;20081;-44
2022/09/27 01:54:32;;;;;;;8.13;2.90;;;;;;;14.66;88.55;97748.97;5080889;28;20119;-45
2022/09/27 01:57:01;;;;;;;7.70;2.08;;;;;;;14.59;87.39;97748.41;5090479;28;20036;-45
2022/09/27 01:59:41;;;;;;;4.93;1.60;;;;;;;14.45;86.49;97755.88;5091761;28;20023;-45
2022/09/27 02:02:10;;;;;;;13.20;1.92;;;;;;;14.49;87.07;97754.34;5091792;28;20031;-45
2022/09/27 02:04:41;;;;;;;4.93;1.40;;;;;;;14.67;86.43;97760.34;5091656;28;20056;-45
2022/09/27 02:07:17;;;;;;;10.05;3.63;;;;;;;14.60;85.18;97751.81;5090441;28;20470;-46
2022/09/27 02:10:01;;;;;;;5.38;1.75;;;;;;;14.80;85.43;97753.88;5090485;28;20120;-46
2022/09/27 02:12:32;;;;;;;6.65;1.85;;;;;;;15.01;85.12;97758.28;5090021;28;20048;-46
2022/09/27 02:15:08;;;;;;;15.98;3.30;;;;;;;15.23;84.72;97765.31;5091924;28;20074;-46
2022/09/27 02:17:37;;;;;;;8.75;1.88;;;;;;;15.34;83.60;97767.78;5090323;28;20043;-47
2022/09/27 02:20:40;;;;;;;10.10;2.38;;;;;;;15.21;82.64;97767.41;5090232;28;20020;-47
2022/09/27 02:23:05;;;;;;;10.98;1.65;;;;;;;15.08;82.50;97768.63;5091648;28;20036;-47
2022/09/27 02:25:43;;;;;;;4.65;2.00;;;;;;;14.97;82.06;97771.19;5090162;28;20043;-47
2022/09/27 02:28:26;;;;;;;10.93;1.90;;;;;;;14.96;82.28;97768.81;5091488;28;20032;-47
2022/09/27 02:30:53;;;;;;;9.68;1.98;;;;;;;15.09;82.72;97770.22;5090194;28;20161;-47
2022/09/27 02:33:23;;;;;;;8.07;1.83;;;;;;;15.08;81.53;97772.06;5090058;28;20501;-47
2022/09/27 02:35:49;;;;;;;6.90;1.70;;;;;;;15.20;82.20;97771.13;5091451;28;20024;-48
2022/09/27 02:38:15;;;;;;;8.00;1.80;;;;;;;15.48;81.94;97762.84;5092103;28;20020;-48
2022/09/27 02:40:46;;;;;;;4.57;1.67;;;;;;;15.66;80.25;97761.63;5095125;28;20210;-48
2022/09/27 02:43:15;;;;;;;6.38;2.10;;;;;;;15.79;80.43;97765.69;5093912;28;20032;-48
2022/09/27 02:46:01;;;;;;;7.90;1.67;;;;;;;16.04;78.72;97767.69;5095142;28;20028;-48
2022/09/27 02:48:43;;;;;;;6.85;1.85;;;;;;;15.87;77.95;97756.47;5093759;28;20485;-45
2022/09/27 02:51:12;;;;;;;7.80;2.38;;;;;;;15.43;78.52;97767.31;5093769;28;20111;-45
2022/09/27 02:53:50;;;;;;;6.57;1.77;;;;;;;15.32;80.11;97774.38;5094874;28;20161;-45
2022/09/27 02:56:22;;;;;;;5.57;1.73;;;;;;;15.20;79.93;97779.84;5093635;28;20020;-45
2022/09/27 02:59:05;;;;;;;7.75;2.20;;;;;;;14.93;80.23;97770.09;5094835;28;20031;-45
2022/09/27 03:01:33;;;;;;;9.70;1.70;;;;;;;14.80;80.50;97777.63;5094882;28;20031;-48
2022/09/27 03:04:22;;;;;;;8.57;1.88;;;;;;;15.01;81.09;97783.88;5094792;28;20512;-47
2022/09/27 03:06:50;;;;;;;11.15;1.85;;;;;;;15.22;80.78;97774.31;5093429;28;20116;-47
2022/09/27 03:09:19;;;;;;;8.05;2.13;;;;;;;15.18;79.44;97787.22;5093374;28;20173;-48
2022/09/27 03:11:45;;;;;;;6.75;1.73;;;;;;;15.04;79.39;97788.69;5094385;28;20020;-48
2022/09/27 03:14:11;;;;;;;13.90;1.83;;;;;;;14.91;79.61;97785.41;5093239;28;20027;-48
2022/09/27 03:16:36;;;;;;;11.32;2.17;;;;;;;15.00;80.48;97787.59;5093212;28;20039;-48
2022/09/27 03:19:02;;;;;;;7.90;2.00;;;;;;;15.27;80.98;97793.66;5093228;28;20024;-47
2022/09/27 03:21:28;;;;;;;17.30;2.30;;;;;;;15.64;80.82;97787.56;5076380;28;20481;-48
2022/09/27 03:23:54;;;;;;;17.88;2.75;;;;;;;15.94;79.87;97791.47;5093084;28;20032;-47
2022/09/27 03:26:20;;;;;;;4.68;1.70;;;;;;;16.15;79.18;97784.41;5094378;28;20397;-48
2022/09/27 03:28:45;;;;;;;6.15;1.90;;;;;;;16.24;79.01;97792.63;5093034;28;20020;-48
2022/09/27 03:31:11;;;;;;;9.63;1.90;;;;;;;16.10;77.36;97794.97;5092904;28;20099;-48
2022/09/27 03:33:36;;;;;;;5.03;1.95;;;;;;;15.71;78.54;97790.75;5094142;28;20115;-48
2022/09/27 03:36:03;;;;;;;6.38;1.77;;;;;;;15.76;79.38;97795.31;5092862;28;20062;-48
2022/09/27 03:38:28;;;;;;;9.68;2.22;;;;;;;15.90;79.51;97800.97;5094069;28;20020;-48
2022/09/27 03:40:54;;;;;;;5.63;2.20;;;;;;;15.85;78.20;97800.94;5094075;28;20102;-48
2022/09/27 03:43:19;;;;;;;7.13;2.15;;;;;;;15.73;78.62;97801.91;5092934;28;20052;-48
2022/09/27 03:45:46;;;;;;;6.85;2.20;;;;;;;15.65;77.71;97799.72;5093966;28;20021;-47
2022/09/27 03:48:11;;;;;;;6.20;1.73;;;;;;;15.43;76.71;97802.47;5093969;28;20020;-47
2022/09/27 03:50:37;;;;;;;12.25;2.35;;;;;;;15.02;76.52;97801.34;5092943;28;20090;-48
2022/09/27 03:53:03;;;;;;;6.82;1.63;;;;;;;14.75;77.82;97804.81;5092475;28;20020;-47
2022/09/27 03:55:28;;;;;;;10.15;2.28;;;;;;;14.70;78.42;97808.19;5092473;28;20028;-47
2022/09/27 03:57:54;;;;;;;8.27;2.08;;;;;;;14.65;78.37;97810.78;5092457;28;20108;-48
2022/09/27 04:00:21;;;;;;;14.38;2.40;;;;;;;14.64;78.91;97813.66;5092336;28;20558;-48
2022/09/27 04:02:46;;;;;;;12.50;2.15;;;;;;;14.80;78.56;97815.41;5092360;28;20032;-47
2022/09/27 04:05:12;;;;;;;9.07;2.70;;;;;;;15.09;78.71;97820.44;5093559;28;20564;-48
2022/09/27 04:07:38;;;;;;;11.32;2.35;;;;;;;15.42;77.53;97827.31;5093597;28;20099;-47
2022/09/27 04:10:04;;;;;;;12.93;2.50;;;;;;;15.56;75.94;97825.84;5092166;28;20489;-48
2022/09/27 04:12:31;;;;;;;12.23;2.55;;;;;;;15.67;75.70;97829.34;5093103;28;20040;-48
2022/09/27 04:14:57;;;;;;;13.25;2.05;;;;;;;15.85;75.65;97830.81;5093327;28;20052;-48
2022/09/27 04:17:24;;;;;;;9.95;2.67;;;;;;;16.07;75.16;97830.69;5092043;28;20125;-48
2022/09/27 04:19:50;;;;;;;10.45;2.22;;;;;;;16.24;74.46;97829.69;5093287;28;20023;-48
2022/09/27 04:22:16;;;;;;;12.75;2.65;;;;;;;16.45;73.92;97826.09;5093193;28;20020;-48
2022/09/27 04:24:44;;;;;;;10.93;2.05;;;;;;;16.47;72.83;97837.22;5093295;28;20012;-48
2022/09/27 04:27:11;;;;;;;13.98;2.33;;;;;;;16.62;73.74;97835.66;5093167;28;20057;-48
2022/09/27 04:29:41;;;;;;;14.10;1.92;;;;;;;16.78;73.79;97835.47;5093050;28;20017;-48
2022/09/27 04:32:07;;;;;;;7.68;1.70;;;;;;;16.86;72.15;97838.69;5092952;28;20020;-48
2022/09/27 04:37:16;;;;;;;10.02;1.90;;;;;;;16.29;71.18;97842.97;5093232;28;20031;-48
2022/09/27 04:39:42;;;;;;;9.07;2.15;;;;;;;15.92;71.26;97844.63;5091629;28;20398;-48
2022/09/27 04:42:08;;;;;;;15.60;2.28;;;;;;;15.67;71.45;97850.50;5092852;28;20035;-46
2022/09/27 04:44:34;;;;;;;9.75;2.20;;;;;;;15.51;71.95;97862.03;5091514;28;20051;-47
2022/09/27 04:47:00;;;;;;;12.20;2.75;;;;;;;15.45;71.77;97855.91;5092795;28;20486;-46
2022/09/27 04:49:28;;;;;;;10.48;2.10;;;;;;;15.33;72.07;97850.81;5091424;28;20047;-48
2022/09/27 04:51:55;;;;;;;18.85;2.80;;;;;;;15.25;72.84;97853.91;5091414;28;20054;-48
2022/09/27 04:54:21;;;;;;;11.18;2.13;;;;;;;15.25;73.15;97858.38;5092564;28;20020;-48
2022/09/27 04:56:47;;;;;;;7.43;1.80;;;;;;;15.18;72.68;97855.94;5092654;28;20537;-48
2022/09/27 04:59:13;;;;;;;11.55;2.00;;;;;;;15.12;73.21;97856.94;5092521;28;20103;-48
2022/09/27 05:01:39;;;;;;;12.02;2.47;;;;;;;15.31;73.96;97863.47;5092458;28;20020;-48
2022/09/27 05:04:05;;;;;;;8.40;1.70;;;;;;;15.58;74.28;97852.84;5091155;28;20475;-48
2022/09/27 05:06:31;;;;;;;15.13;2.75;;;;;;;15.59;72.18;97853.63;5092427;28;20031;-47
2022/09/27 05:08:57;;;;;;;7.07;2.28;;;;;;;15.36;72.16;97849.50;5091120;28;20477;-48
2022/09/27 05:11:23;;;;;;;13.02;2.72;;;;;;;15.15;73.00;97853.78;5092384;28;20016;-46
2022/09/27 05:13:49;;;;;;;9.27;2.50;;;;;;;15.25;73.93;97853.09;5090725;28;20056;-46
2022/09/27 05:16:16;;;;;;;8.95;2.55;;;;;;;15.38;73.29;97857.97;5090973;28;20020;-46
2022/09/27 05:18:44;;;;;;;9.55;2.92;;;;;;;15.52;73.38;97863.63;5092269;28;20103;-46
2022/09/27 05:21:11;;;;;;;11.60;3.45;;;;;;;15.59;72.92;97864.22;5092213;28;20436;-46
2022/09/27 05:23:37;;;;;;;13.27;2.35;;;;;;;15.73;73.39;97860.09;5092238;28;20028;-46
2022/09/27 05:26:04;;;;;;;8.60;3.58;;;;;;;15.97;72.93;97865.81;5092409;28;20024;-46
2022/09/27 05:28:31;;;;;;;13.80;3.40;;;;;;;16.02;71.76;97861.59;5090815;28;20024;-46
2022/09/27 05:30:57;;;;;;;7.57;2.03;;;;;;;16.05;71.33;97867.19;5092031;28;20020;-46
2022/09/27 05:33:23;;;;;;;9.02;2.30;;;;;;;16.11;69.88;97865.38;5092293;28;20513;-46
2022/09/27 05:35:56;;;;;;;14.18;2.30;;;;;;;16.03;68.91;97877.25;5090747;28;20032;-46
2022/09/27 05:38:24;;;;;;;6.95;2.25;;;;;;;15.94;69.15;97871.63;5090726;28;20027;-46
2022/09/27 05:40:50;;;;;;;17.40;2.30;;;;;;;15.78;68.29;97878.66;5090677;28;20016;-48
2022/09/27 05:43:17;;;;;;;9.95;2.22;;;;;;;15.67;68.54;97878.81;5091852;28;20043;-46
2022/09/27 05:45:43;;;;;;;10.73;2.30;;;;;;;15.76;69.46;97879.97;5091858;28;20031;-47
2022/09/27 05:48:11;;;;;;;12.30;2.25;;;;;;;15.98;68.94;97879.88;5092143;28;20406;-47
2022/09/27 05:50:38;;;;;;;10.77;3.13;;;;;;;16.12;68.66;97881.00;5091779;28;20016;-46
2022/09/27 05:53:04;;;;;;;11.93;2.90;;;;;;;16.30;68.02;97877.16;5092049;28;20027;-46
2022/09/27 05:55:32;;;;;;;9.18;2.25;;;;;;;16.47;68.07;97884.88;5091876;28;20410;-46
2022/09/27 05:58:03;;;;;;;17.75;2.95;;;;;;;16.76;67.49;97882.63;5091899;28;20486;-46
2022/09/27 06:00:30;;;;;;;14.05;3.28;;;;;;;17.06;66.94;97875.81;5091745;28;20504;-46
2022/09/27 06:03:00;;;;;;;8.55;2.53;;;;;;;17.34;64.93;97884.34;5091770;28;20146;-46
2022/09/27 06:05:28;;;;;;;10.68;2.60;;;;;;;17.45;64.47;97882.53;5092046;28;20394;-46
2022/09/27 06:07:59;;;;;;;17.33;3.15;;;;;;;17.44;64.18;97884.38;5091729;28;20032;-46
2022/09/27 06:10:25;;;;;;;15.73;3.00;;;;;;;17.53;64.73;97885.44;5091659;28;20393;-46
2022/09/27 06:12:51;;;;;;;11.13;2.60;;;;;;;17.64;64.40;97883.56;5090243;28;20048;-46
2022/09/27 06:15:17;;;;;;;13.80;3.20;;;;;;;17.79;64.23;97888.09;5095993;28;20478;-46
2022/09/27 06:17:43;;;;;;;14.45;3.22;;;;;;;17.88;63.45;97897.13;5095701;28;20023;-46
2022/09/27 06:20:09;;;;;;;15.10;3.17;;;;;;;17.83;62.80;97896.31;5095670;28;20393;-46
2022/09/27 06:22:35;;;;;;;18.77;4.70;;;;;;;17.87;62.88;97889.47;5094246;28;20403;-46
2022/09/27 06:25:03;;;;;;;12.82;2.50;;;;;;;17.86;62.22;97893.94;5095441;28;20027;-46
2022/09/27 06:27:30;;;;;;;8.55;2.38;;;;;;;17.76;61.77;97888.63;5094485;28;20020;-46
2022/09/27 06:29:57;;;;;;;12.95;2.78;;;;;;;17.67;62.19;97898.19;5095437;28;20077;-46
2022/09/27 06:32:23;;;;;;;12.57;2.35;;;;;;;17.60;61.73;97895.00;5095405;28;20062;-46
2022/09/27 06:34:49;;;;;;;10.60;3.00;;;;;;;17.56;63.74;97895.50;5094019;28;20024;-46
2022/09/27 06:37:14;;;;;;;12.95;3.25;;;;;;;17.34;65.46;97902.94;5095279;28;20028;-46
2022/09/27 06:39:41;;;;;;;22.25;3.58;;;;;;;17.10;67.40;97897.31;5095359;28;20046;-45
2022/09/27 06:42:07;;;;;;;12.20;2.88;;;;;;;17.15;70.21;97895.47;5095229;28;20043;-46
2022/09/27 06:44:33;;;;;;;15.15;3.75;;;;;;;17.66;69.75;97899.25;5093859;28;20405;-47
2022/09/27 06:46:59;;;;;;;12.40;3.28;;;;;;;18.22;69.69;97895.75;5095133;28;20024;-45
2022/09/27 06:49:25;;;;;;;13.70;3.45;;;;;;;18.10;70.20;97898.69;5095068;28;20082;-43
2022/09/27 06:51:51;;;;;;;16.20;3.50;;;;;;;17.69;70.50;97901.38;5093698;28;20020;-45
2022/09/27 06:54:17;;;;;;;19.50;3.95;;;;;;;17.12;71.35;97889.91;5093636;28;20402;-45
2022/09/27 06:56:46;;;;;;;21.98;4.25;;;;;;;16.79;72.75;97897.22;5093608;28;20020;-43
2022/09/27 07:01:55;;;;;;;18.10;3.20;;;;;;;16.39;73.57;97895.97;5094916;28;20032;-44
2022/09/27 07:04:21;;;;;;;16.73;3.47;;;;;;;16.18;74.40;97895.09;5094806;28;20402;-43
2022/09/27 07:06:46;;;;;;;20.25;5.10;;;;;;;16.39;74.34;97893.31;5094764;28;20129;-43
2022/09/27 07:09:13;;;;;;;14.40;3.60;;;;;;;16.56;73.07;97899.25;5093408;28;20020;-44
2022/09/27 07:11:41;;;;;;;18.38;4.30;;;;;;;16.61;71.63;97901.09;5094304;28;20020;-46
2022/09/27 07:14:07;;;;;;;16.67;3.90;;;;;;;16.77;72.10;97902.75;5093406;28;20401;-45
2022/09/27 07:16:33;;;;;;;16.00;3.35;;;;;;;16.93;71.29;97908.16;5094846;28;20034;-45
2022/09/27 07:18:59;;;;;;;14.48;4.05;;;;;;;17.10;71.52;97902.63;5094500;28;20494;-46
2022/09/27 07:21:25;;;;;;;17.17;3.28;;;;;;;17.42;70.11;97901.63;5094475;28;20032;-44
2022/09/27 07:23:52;;;;;;;11.65;2.97;;;;;;;17.68;69.74;97910.38;5094356;28;20023;-44
2022/09/27 07:26:18;;;;;;;17.92;4.30;;;;;;;18.08;68.53;97914.09;5093391;28;20039;-43
2022/09/27 07:28:44;;;;;;;10.80;3.55;;;;;;;18.52;65.77;97916.13;5093026;28;20414;-44
2022/09/27 07:31:11;;;;;;;13.70;3.45;;;;;;;19.36;64.93;97921.59;5094126;28;20032;-44
2022/09/27 07:33:38;;;;;;;17.98;3.50;;;;;;;19.88;63.15;97919.34;5092925;28;20162;-44
2022/09/27 07:36:10;;;;;;;15.88;2.95;;;;;;;19.97;62.23;97919.56;5094093;28;20072;-44
2022/09/27 07:38:36;;;;;;;26.48;4.90;;;;;;;19.95;63.41;97930.50;5094145;28;20518;-44
2022/09/27 07:41:12;;;;;;;17.38;3.55;;;;;;;20.10;62.57;97926.88;5094035;28;20020;-44
2022/09/27 07:43:37;;;;;;;13.60;3.15;;;;;;;20.58;62.39;97923.47;5094250;28;20028;-44
2022/09/27 07:46:06;;;;;;;9.50;2.90;;;;;;;20.94;60.42;97924.63;5092707;28;20436;-44
2022/09/27 07:48:33;;;;;;;16.00;4.00;;;;;;;21.37;59.45;97928.34;5094286;28;20024;-44
2022/09/27 07:50:59;;;;;;;20.55;4.13;;;;;;;21.63;59.50;97924.25;5093883;28;20051;-44
2022/09/27 07:53:24;;;;;;;11.65;2.90;;;;;;;21.90;57.15;97920.06;5093757;28;20032;-44
2022/09/27 07:55:52;;;;;;;9.02;2.17;;;;;;;21.81;55.63;97914.63;5093804;28;20025;-44
2022/09/27 07:58:18;;;;;;;13.85;3.00;;;;;;;21.80;55.59;97926.38;5093707;28;20115;-44
2022/09/27 08:00:44;;;;;;;18.15;3.47;;;;;;;21.96;55.06;97928.81;5093646;28;20020;-44
2022/09/27 08:03:16;;;;;;;19.73;3.25;;;;;;;21.98;54.00;97930.09;5093631;28;20115;-44
2022/09/27 08:05:46;;;;;;;14.70;2.85;;;;;;;21.72;53.83;97922.50;5093514;28;20017;-44
2022/09/27 08:08:13;;;;;;;11.77;2.60;;;;;;;21.38;54.70;97929.94;5093518;28;20020;-44
2022/09/27 08:10:43;;;;;;;17.33;3.08;;;;;;;21.06;54.97;97926.09;5092177;28;20030;-44
2022/09/27 08:13:09;;;;;;;13.23;2.95;;;;;;;21.07;55.37;97927.72;5093068;28;20048;-44
2022/09/27 08:15:37;;;;;;;9.00;2.30;;;;;;;21.23;52.52;97921.06;5092086;28;20405;-44
2022/09/27 08:18:04;;;;;;;8.10;2.85;;;;;;;21.06;53.24;97920.78;5093343;28;20027;-44
2022/09/27 08:20:29;;;;;;;12.77;3.08;;;;;;;20.94;51.99;97923.84;5093379;28;20039;-45
2022/09/27 08:22:55;;;;;;;9.25;2.55;;;;;;;21.58;51.06;97932.31;5093245;28;20024;-46
2022/09/27 08:25:23;;;;;;;11.75;2.58;;;;;;;22.38;48.36;97925.13;5091910;28;20028;-46
2022/09/27 08:27:57;;;;;;;24.73;3.63;;;;;;;22.30;47.86;97925.81;5091912;28;20501;-44
2022/09/27 08:30:24;;;;;;;12.38;2.28;;;;;;;22.87;47.48;97928.97;5091882;28;20028;-46
2022/09/27 08:32:55;;;;;;;8.73;2.00;;;;;;;24.21;45.33;97931.31;5092968;28;20024;-44
2022/09/27 08:35:21;;;;;;;15.88;2.55;;;;;;;24.54;43.25;97930.97;5093085;28;20387;-44
2022/09/27 08:38:01;;;;;;;11.48;2.20;;;;;;;24.15;43.09;97927.94;5092902;28;20043;-46
2022/09/27 08:40:50;;;;;;;10.05;2.80;;;;;;;24.02;42.13;97918.88;5092984;28;20028;-44
2022/09/27 08:43:45;;;;;;;10.65;3.40;;;;;;;23.96;41.81;97930.84;5062739;28;20032;-46
2022/09/27 08:46:40;;;;;;;17.63;3.13;;;;;;;23.36;43.22;97925.81;5092936;28;20397;-46
2022/09/27 08:49:17;;;;;;;9.07;2.47;;;;;;;22.94;42.72;97929.38;5091544;28;20493;-46
2022/09/27 08:51:51;;;;;;;16.55;2.58;;;;;;;22.18;43.04;97939.63;5091472;28;20036;-46
2022/09/27 08:54:23;;;;;;;8.55;2.42;;;;;;;22.31;43.26;97936.19;5092940;28;20028;-44
2022/09/27 08:56:50;;;;;;;7.43;2.30;;;;;;;23.91;40.35;97947.84;5092929;28;20399;-46
2022/09/27 08:59:22;;;;;;;12.40;2.42;;;;;;;26.16;35.45;97930.91;5092757;28;20099;-46
2022/09/27 09:01:50;;;;;;;7.80;2.15;;;;;;;28.29;31.93;97935.72;5092625;28;20024;-44
2022/09/27 09:04:42;;;;;;;12.55;2.28;;;;;;;29.57;30.50;97929.97;5091191;28;20028;-46
2022/09/27 09:07:40;;;;;;;8.70;2.25;;;;;;;29.01;30.37;97929.91;5089557;28;20044;-44
2022/09/27 09:13:21;;;;;;;9.20;2.30;;;;;;;27.50;32.18;97941.09;5092215;28;20125;-45
2022/09/27 09:16:06;;;;;;;12.63;2.70;;;;;;;28.90;30.61;97928.81;5092370;28;20783;-44
2022/09/27 09:19:03;;;;;;;10.40;2.20;;;;;;;29.39;29.67;97928.72;5092247;28;20055;-44
2022/09/27 09:22:03;;;;;;;6.82;2.30;;;;;;;29.65;27.90;97928.25;5092299;28;20028;-45
2022/09/27 09:24:47;;;;;;;17.63;14.25;;;;;;;30.15;26.36;97929.59;5086342;28;20509;-45
2022/09/27 09:27:39;;;;;;;10.68;3.70;;;;;;;30.32;26.16;97922.28;5092260;28;20032;-45
2022/09/27 09:30:07;;;;;;;11.77;2.25;;;;;;;31.06;24.82;97925.16;5092394;28;20107;-45
2022/09/27 09:33:12;;;;;;;7.18;2.45;;;;;;;31.79;24.65;97917.31;5090807;28;20024;-45
2022/09/27 09:35:44;;;;;;;12.38;2.60;;;;;;;32.79;22.78;97915.50;5092129;28;20107;-45
2022/09/27 09:38:20;;;;;;;15.55;8.60;;;;;;;33.24;21.81;97913.75;5092328;28;20043;-44
2022/09/27 09:40:55;;;;;;;8.13;2.00;;;;;;;33.53;20.94;97912.16;5092042;28;20111;-45
2022/09/27 09:43:24;;;;;;;11.75;3.70;;;;;;;33.27;21.47;97913.03;5090928;28;20047;-45
2022/09/27 09:45:58;;;;;;;10.27;2.10;;;;;;;32.97;21.38;97913.78;5091875;28;20024;-45
2022/09/27 09:48:38;;;;;;;10.37;1.90;;;;;;;32.64;21.43;97917.22;5073736;28;20417;-44
2022/09/27 09:51:10;;;;;;;8.45;1.80;;;;;;;32.27;21.74;97922.44;5091898;28;20132;-45
2022/09/27 09:53:55;;;;;;;8.43;1.70;;;;;;;31.00;22.59;97929.28;5091849;28;20043;-44
2022/09/27 09:56:29;;;;;;;10.07;2.35;;;;;;;30.01;24.36;97929.25;5091925;28;20028;-45
2022/09/27 09:59:23;;;;;;;6.18;3.13;;;;;;;30.72;23.81;97927.47;5091871;28;20028;-45
2022/09/27 10:01:49;;;;;;;19.60;5.53;;;;;;;29.77;25.22;97924.75;5091402;28;20040;-46
2022/09/27 10:04:20;;;;;;;8.02;2.70;;;;;;;28.31;26.06;97933.50;5091700;28;20785;-46
2022/09/27 10:06:47;;;;;;;8.13;2.17;;;;;;;27.04;28.18;97932.06;5091696;28;20107;-46
2022/09/27 10:09:21;;;;;;;23.23;4.70;;;;;;;26.67;28.14;97934.53;5090417;28;20035;-44
2022/09/27 10:11:47;;;;;;;965.97;570.65;;;;;;;27.33;27.18;97933.97;5091391;28;20627;-47
2022/09/27 10:14:16;;;;;;;1471.68;686.85;;;;;;;28.16;27.22;97929.53;5091619;28;20111;-46
2022/09/27 10:16:47;;;;;;;722.33;347.50;;;;;;;28.72;26.89;97933.66;5091523;28;20028;-45
2022/09/27 10:19:17;;;;;;;526.83;245.07;;;;;;;30.07;26.26;97923.22;5091883;28;20024;-45
2022/09/27 10:21:49;;;;;;;363.35;163.82;;;;;;;31.02;26.71;97929.72;5091551;28;20024;-45
2022/09/27 10:24:18;;;;;;;239.27;116.57;;;;;;;31.34;24.51;97921.47;5091627;28;20074;-45
2022/09/27 10:26:48;;;;;;;131.93;61.95;;;;;;;32.11;23.52;97925.28;5090213;28;20544;-47
2022/09/27 10:29:20;;;;;;;100.95;42.78;;;;;;;32.91;23.06;97926.13;5091469;28;20024;-47
2022/09/27 10:31:49;;;;;;;45.35;19.90;;;;;;;33.20;22.22;97921.91;5091529;28;20497;-47
2022/09/27 10:34:29;;;;;;;31.17;12.95;;;;;;;32.45;22.91;97935.13;5091441;28;20028;-46
2022/09/27 10:37:10;;;;;;;15.90;5.03;;;;;;;30.80;22.92;97933.84;5090979;28;20119;-46
2022/09/27 10:39:42;;;;;;;57.17;30.35;;;;;;;29.57;25.26;97943.50;5091511;28;20474;-46
2022/09/27 10:42:40;;;;;;;1595.60;670.38;;;;;;;28.49;26.75;97937.56;5091433;28;20032;-45
2022/09/27 10:45:30;;;;;;;977.70;557.15;;;;;;;28.56;27.44;97936.25;5046353;28;20086;-45
2022/09/27 10:47:57;;;;;;;508.35;411.65;;;;;;;29.97;25.36;97923.72;5091482;28;20112;-45
2022/09/27 10:50:26;;;;;;;483.75;411.85;;;;;;;31.36;23.49;97917.25;5091202;28;20035;-45
2022/09/27 10:53:03;;;;;;;113.03;55.65;;;;;;;32.04;23.49;97909.66;5091306;28;20020;-45
2022/09/27 10:55:32;;;;;;;42.38;14.18;;;;;;;31.29;22.47;97909.00;5091531;28;20077;-45
2022/09/27 10:58:01;;;;;;;65.20;18.48;;;;;;;29.85;24.91;97916.47;5091255;28;20024;-45
2022/09/27 11:00:35;;;;;;;24.63;5.38;;;;;;;28.41;25.50;97924.16;5093764;28;20027;-45
2022/09/27 11:03:06;;;;;;;35.78;8.10;;;;;;;27.03;27.35;97930.50;5093634;28;20493;-45
2022/09/27 11:05:38;;;;;;;22.88;6.18;;;;;;;26.10;28.60;97928.41;5094904;28;20032;-46
2022/09/27 11:08:31;;;;;;;12.68;2.88;;;;;;;25.18;29.73;97936.66;5094822;28;20521;-46
2022/09/27 11:11:24;;;;;;;16.52;3.45;;;;;;;24.35;30.20;97936.53;5094648;28;20066;-46
2022/09/27 11:14:19;;;;;;;15.07;3.85;;;;;;;23.63;31.28;97935.66;5094358;28;20520;-46
2022/09/27 11:17:03;;;;;;;;;;;;;;;23.05;31.88;97937.22;5095245;28;20051;-46
2022/09/27 11:19:51;;;;;;;11.35;2.53;;;;;;;22.42;32.71;97939.50;5093254;28;19908;-46
2022/09/27 11:22:42;;;;;;;10.85;2.83;;;;;;;21.83;34.44;97951.69;5094556;28;20048;-46
2022/09/27 11:25:32;;;;;;;13.27;2.25;;;;;;;21.40;35.28;97946.47;5094494;28;20031;-44
2022/09/27 11:28:53;;;;;;;9.15;1.52;;;;;;;21.05;36.00;97949.34;5094335;28;20103;-44
2022/09/27 11:31:56;;;;;;;11.32;2.50;;;;;;;20.88;36.68;97957.78;5094550;28;20152;-43
2022/09/27 11:34:46;;;;;;;8.70;1.90;;;;;;;20.69;35.96;97946.31;5092898;28;20028;-44
2022/09/27 11:37:26;;;;;;;8.25;1.83;;;;;;;20.62;35.58;97961.84;5092954;28;20028;-44
2022/09/27 11:40:14;;;;;;;8.05;1.80;;;;;;;20.32;36.85;97953.06;5092925;28;20410;-46
2022/09/27 11:42:46;;;;;;;12.70;2.20;;;;;;;20.09;37.25;97960.72;5094214;28;20058;-44
2022/09/27 11:45:17;;;;;;;12.50;2.40;;;;;;;19.99;37.04;97966.16;5094081;28;20047;-44
2022/09/27 11:48:04;;;;;;;18.60;2.75;;;;;;;19.84;37.51;97967.06;5092669;28;20056;-45
2022/09/27 11:50:49;;;;;;;6.10;1.67;;;;;;;19.85;37.30;97962.53;5092683;28;20020;-46
2022/09/27 11:53:23;;;;;;;20.77;2.57;;;;;;;19.90;37.84;97965.97;5093866;28;20162;-45
2022/09/27 11:56:04;;;;;;;12.18;2.50;;;;;;;20.08;37.68;97961.00;5093901;28;20262;-46
2022/09/27 11:59:07;;;;;;;12.70;2.33;;;;;;;20.35;37.42;97968.50;5093778;28;20032;-43